Time;durP1;ratioP1;P1;durP2;ratioP2;P2;SDS_P1;SDS_P2;PMS_P1;PMS_P2;Temp;Humidity;BMP_temperature;BMP_pressure;BME280_temperature;BME280_humidity;BME280_pressure;Samples;Min_cycle;Max_cycle;Signal;HPM_P1;HPM_P2
2021/07/21 09:28:16;;;;;;;;;28.50;23.50;;;;;23.58;51.83;101713.19;5088744;27;45379;-45
2021/07/21 09:30:46;;;;;;;;;32.25;27.25;;;;;23.74;51.85;101714.06;5072705;28;45715;-49
2021/07/21 09:33:18;;;;;;;;;28.75;25.75;;;;;23.93;51.68;101716.53;5073425;28;45476;-47
2021/07/21 09:35:45;;;;;;;;;31.75;23.25;;;;;24.12;51.37;101706.72;5073109;27;45354;-49
2021/07/21 09:38:26;;;;;;;;;28.50;24.00;;;;;24.30;50.87;101713.63;5073113;28;46305;-43
2021/07/21 09:40:55;;;;;;;;;26.00;22.00;;;;;24.48;50.91;101713.50;5072986;27;45696;-45
2021/07/21 09:43:23;;;;;;;;;26.25;21.75;;;;;24.63;50.39;101712.59;5071652;28;45499;-48
2021/07/21 09:45:49;;;;;;;;;26.25;22.50;;;;;24.78;49.80;101715.28;5072953;28;45465;-45
2021/07/21 09:48:15;;;;;;;;;30.00;25.25;;;;;24.90;49.51;101714.56;5072739;28;45390;-43
2021/07/21 09:50:43;;;;;;;;;28.25;21.00;;;;;24.99;49.86;101708.69;5068255;28;45921;-45
2021/07/21 09:53:12;;;;;;;;;27.75;23.50;;;;;25.09;48.96;101708.13;5057931;28;45390;-48
2021/07/21 09:55:39;;;;;;;;;24.25;21.25;;;;;25.16;48.87;101705.00;5052534;28;45268;-44
2021/07/21 09:58:09;;;;;;;;;24.25;21.25;;;;;25.23;48.92;101702.84;5051631;28;46370;-44
2021/07/21 10:00:40;;;;;;;;;23.25;21.25;;;;;25.30;48.14;101712.13;5051642;28;46024;-45
2021/07/21 10:03:15;;;;;;;;;26.00;23.25;;;;;25.37;48.54;101706.44;5051841;28;45304;-49
2021/07/21 10:06:09;;;;;;;;;22.75;21.25;;;;;25.43;47.89;101698.13;5056486;28;45318;-45
2021/07/21 10:08:44;;;;;;;;;27.25;25.25;;;;;25.47;48.04;101691.69;5072229;27;46021;-49
2021/07/21 10:11:30;;;;;;;;;26.75;23.25;;;;;25.52;47.43;101694.88;5072926;27;45338;-44
2021/07/21 10:14:08;;;;;;;;;23.00;21.00;;;;;25.57;47.86;101700.75;5087193;27;45485;-45
2021/07/21 10:16:44;;;;;;;;;24.75;21.75;;;;;25.62;48.08;101700.47;5072276;27;45362;-47
2021/07/21 10:19:18;;;;;;;;;27.00;24.25;;;;;25.66;47.17;101701.97;5071629;27;46968;-43
2021/07/21 10:21:50;;;;;;;;;17.00;12.25;;;;;25.70;47.45;101699.97;5071683;28;45541;-45
2021/07/21 10:24:15;;;;;;;;;24.00;23.25;;;;;25.74;47.21;101704.16;5072243;27;45245;-44
2021/07/21 10:26:42;;;;;;;;;23.50;23.25;;;;;25.76;47.63;101703.09;5071196;28;45259;-45
2021/07/21 10:29:08;;;;;;;;;23.50;19.25;;;;;25.79;47.67;101702.03;5071077;28;45417;-46
2021/07/21 10:31:33;;;;;;;;;27.00;20.75;;;;;25.81;47.07;101700.13;5071641;28;46077;-43
2021/07/21 10:33:59;;;;;;;;;24.25;22.25;;;;;25.83;47.28;101700.91;5071924;28;45339;-46
2021/07/21 10:36:25;;;;;;;;;27.25;21.75;;;;;25.85;47.45;101704.28;5071571;28;45647;-44
2021/07/21 10:38:51;;;;;;;;;25.00;22.50;;;;;25.88;47.31;101693.47;5062212;28;46903;-48
2021/07/21 10:41:18;;;;;;;;;27.75;24.00;;;;;25.89;47.43;101703.16;5058403;28;45756;-44
2021/07/21 10:43:49;;;;;;;;;26.00;20.00;;;;;25.91;47.34;101701.25;5058831;28;45315;-43
2021/07/21 10:46:36;;;;;;;;;26.50;23.50;;;;;25.93;47.34;101704.66;5058708;28;45454;-44
2021/07/21 10:49:37;;;;;;;;;26.25;22.00;;;;;25.94;47.19;101702.84;5057825;28;45464;-47
2021/07/21 10:55:02;;;;;;;;;26.50;22.50;;;;;25.97;46.45;101699.13;5058117;28;45331;-46
2021/07/21 11:00:29;;;;;;;;;25.00;20.50;;;;;25.99;46.42;101697.22;5058176;28;45520;-50
2021/07/21 11:03:31;;;;;;;;;23.25;20.50;;;;;26.00;46.51;101699.81;5057858;28;45399;-44
2021/07/21 11:06:07;;;;;;;;;26.00;22.75;;;;;26.01;46.54;101698.00;5058213;28;45386;-45
2021/07/21 11:08:43;;;;;;;;;24.25;21.50;;;;;26.00;46.40;101688.31;5058174;28;45326;-46
2021/07/21 11:11:17;;;;;;;;;24.75;23.50;;;;;26.00;46.84;101686.53;5057496;28;48418;-45
2021/07/21 11:13:42;;;;;;;;;24.00;22.00;;;;;25.99;46.34;101686.59;5057648;28;45767;-47
2021/07/21 11:16:46;;;;;;;;;26.50;21.50;;;;;26.00;46.79;101689.19;5057978;28;45263;-48
2021/07/21 11:19:31;;;;;;;;;28.75;25.50;;;;;26.00;46.54;101688.31;5058257;28;45224;-46
2021/07/21 11:21:58;;;;;;;;;71.75;52.00;;;;;26.01;46.64;101679.38;5057655;28;47085;-45
2021/07/21 11:24:26;;;;;;;;;129.00;110.25;;;;;25.99;46.97;101684.81;5057582;28;45396;-48
2021/07/21 11:26:52;;;;;;;;;204.00;172.50;;;;;26.01;46.81;101685.56;5056448;28;45486;-47
2021/07/21 11:31:49;;;;;;;;;394.75;326.25;;;;;26.03;47.30;101677.50;5057657;28;45797;-45
2021/07/21 11:34:34;;;;;;;;;369.00;297.00;;;;;26.01;46.87;101685.56;5057796;28;45375;-49
2021/07/21 11:37:04;;;;;;;;;380.67;308.67;;;;;26.01;46.78;101674.94;5057463;28;45397;-47
2021/07/21 11:39:50;;;;;;;;;356.25;316.25;;;;;26.03;47.21;101672.19;5056551;28;45517;-48
2021/07/21 11:42:29;;;;;;;;;382.00;312.50;;;;;26.03;47.30;101672.19;5057247;28;46837;-49
2021/07/21 11:45:11;;;;;;;;;319.75;269.00;;;;;26.02;46.78;101670.47;5057093;28;45252;-49
2021/07/21 11:47:52;;;;;;;;;281.00;237.00;;;;;26.02;47.05;101665.16;5057430;28;45239;-49
2021/07/21 11:50:20;;;;;;;;;280.25;233.25;;;;;26.03;46.72;101664.22;5056642;28;45403;-44
2021/07/21 11:52:56;;;;;;;;;275.25;226.25;;;;;26.03;46.70;101666.88;5057571;28;46022;-49
2021/07/21 11:55:27;;;;;;;;;268.25;228.25;;;;;26.03;47.14;101666.88;5057369;28;45208;-46
2021/07/21 11:57:53;;;;;;;;;244.25;204.75;;;;;26.03;46.98;101653.59;5057421;28;45292;-46
2021/07/21 12:00:21;;;;;;;;;244.25;200.50;;;;;26.03;47.10;101658.91;5057781;28;45609;-49
2021/07/21 12:02:57;;;;;;;;;238.75;196.00;;;;;26.03;46.67;101659.75;5057508;28;45374;-48
2021/07/21 12:05:22;;;;;;;;;223.00;189.75;;;;;26.03;46.53;101653.59;5057419;28;45314;-50
2021/07/21 12:07:48;;;;;;;;;220.33;186.67;;;;;26.05;46.97;101649.88;5057471;28;45402;-47
2021/07/21 12:10:18;;;;;;;;;215.75;175.75;;;;;26.07;46.88;101653.28;5057781;27;45234;-50
2021/07/21 12:12:45;;;;;;;;;189.00;166.25;;;;;26.08;46.96;101656.78;5057427;28;45379;-49
2021/07/21 12:15:14;;;;;;;;;192.75;167.00;;;;;26.10;47.10;101654.91;5056992;28;45272;-46
2021/07/21 12:17:40;;;;;;;;;195.50;160.75;;;;;26.13;46.93;101649.41;5057309;28;45260;-50
2021/07/21 12:20:10;;;;;;;;;183.25;148.00;;;;;26.14;47.21;101647.56;5057382;28;45413;-48
2021/07/21 12:22:38;;;;;;;;;167.00;143.25;;;;;26.15;47.51;101644.84;5056881;28;46913;-47
2021/07/21 12:25:09;;;;;;;;;152.50;130.50;;;;;26.16;47.31;101646.53;5057042;28;45255;-46
2021/07/21 12:27:40;;;;;;;;;167.50;138.00;;;;;26.18;47.99;101644.59;5071626;28;45366;-49
2021/07/21 12:30:10;;;;;;;;;151.25;123.75;;;;;26.20;47.79;101641.88;5077687;28;45351;-46
2021/07/21 12:32:36;;;;;;;;;136.50;118.75;;;;;26.20;47.55;101642.72;5058742;28;46259;-48
2021/07/21 12:35:04;;;;;;;;;129.25;109.25;;;;;26.20;47.88;101642.72;5077140;28;45249;-47
2021/07/21 12:37:36;;;;;;;;;127.50;113.25;;;;;26.21;47.38;101646.22;5077024;28;45357;-49
2021/07/21 12:40:06;;;;;;;;;126.75;104.25;;;;;26.20;47.52;101629.41;5077219;27;45245;-47
2021/07/21 12:42:32;;;;;;;;;125.00;110.50;;;;;26.18;47.51;101633.97;5076905;28;46292;-48
2021/07/21 12:44:58;;;;;;;;;123.75;105.00;;;;;26.18;47.43;101630.47;5076809;28;45277;-47
2021/07/21 12:47:27;;;;;;;;;114.75;100.25;;;;;26.18;47.40;101630.47;5076891;28;45538;-47
2021/07/21 12:49:55;;;;;;;;;103.75;89.50;;;;;26.16;47.25;101619.97;5077133;28;45356;-48
2021/07/21 12:52:27;;;;;;;;;109.75;94.50;;;;;26.14;47.41;101616.56;5076572;28;46388;-45
2021/07/21 12:54:56;;;;;;;;;100.00;87.00;;;;;26.14;47.67;101627.19;5076586;28;45356;-49
2021/07/21 12:57:44;;;;;;;;;86.50;73.25;;;;;26.12;47.74;101621.13;5076846;28;45323;-45
2021/07/21 13:00:19;;;;;;;;;101.50;79.50;;;;;26.13;47.23;101629.97;5076992;28;45657;-45
2021/07/21 13:03:15;;;;;;;;;79.25;67.00;;;;;26.12;47.00;101621.13;5076233;28;45362;-47
2021/07/21 13:05:42;;;;;;;;;79.75;66.75;;;;;26.11;47.79;101619.41;5075143;28;45849;-50
2021/07/21 13:08:18;;;;;;;;;78.75;63.50;;;;;26.11;47.15;101616.75;5076243;27;45410;-47
2021/07/21 13:10:45;;;;;;;;;74.25;58.00;;;;;26.13;48.16;101625.50;5076512;27;45625;-45
2021/07/21 13:13:28;;;;;;;;;70.50;55.25;;;;;26.13;48.00;101625.50;5076312;27;46111;-43
2021/07/21 13:16:04;;;;;;;;;72.75;53.75;;;;;26.15;48.05;101617.41;5058238;28;45430;-48
2021/07/21 13:18:30;;;;;;;;;68.50;55.00;;;;;26.16;47.85;101614.66;5073618;28;45499;-45
2021/07/21 13:20:55;;;;;;;;;71.50;54.75;;;;;26.17;48.15;101619.03;5075203;28;45393;-49
2021/07/21 13:23:24;;;;;;;;;75.00;56.33;;;;;26.20;48.40;101621.44;5075906;28;48163;-44
2021/07/21 13:25:52;;;;;;;;;70.50;53.00;;;;;26.20;48.57;101612.66;5076116;28;45263;-50
2021/07/21 13:28:22;;;;;;;;;68.00;52.25;;;;;26.20;48.63;101621.44;5076354;28;45436;-49
2021/07/21 13:30:48;;;;;;;;;67.75;50.75;;;;;26.20;48.25;101610.81;5076565;28;45265;-47
2021/07/21 13:33:13;;;;;;;;;65.25;49.00;;;;;26.20;47.94;101616.13;5076236;28;46555;-45
2021/07/21 13:35:39;;;;;;;;;63.00;48.25;;;;;26.20;48.55;101616.13;5058130;28;45660;-51
2021/07/21 13:38:05;;;;;;;;;61.00;47.50;;;;;26.21;48.36;101628.47;5075920;28;45241;-47
2021/07/21 13:40:30;;;;;;;;;63.75;47.25;;;;;26.21;47.87;101617.00;5076448;28;45671;-48
2021/07/21 13:43:08;;;;;;;;;57.00;46.25;;;;;26.21;48.14;101617.84;5075951;28;46201;-47
2021/07/21 13:45:34;;;;;;;;;56.50;44.25;;;;;26.21;48.18;101620.50;5075723;28;46094;-46
2021/07/21 13:48:00;;;;;;;;;62.25;45.00;;;;;26.22;48.17;101616.06;5076134;28;45418;-48
2021/07/21 13:50:26;;;;;;;;;56.25;43.75;;;;;26.22;48.27;101624.03;5057805;28;45648;-46
2021/07/21 13:53:04;;;;;;;;;52.75;42.75;;;;;26.21;47.91;101617.84;5076064;28;47229;-48
2021/07/21 13:55:30;;;;;;;;;55.75;42.75;;;;;26.18;47.88;101612.72;5075978;28;45210;-44
2021/07/21 13:57:55;;;;;;;;;49.25;38.50;;;;;26.18;47.67;101610.06;5076063;28;45255;-48
2021/07/21 14:00:22;;;;;;;;;49.50;41.00;;;;;26.18;47.71;101620.69;5076619;28;45232;-46
2021/07/21 14:02:47;;;;;;;;;49.25;39.00;;;;;26.17;48.13;101616.38;5075815;28;47113;-46
2021/07/21 14:05:13;;;;;;;;;45.75;37.50;;;;;26.17;48.15;101615.50;5076191;28;45324;-44
2021/07/21 14:07:38;;;;;;;;;45.50;34.25;;;;;26.16;47.32;101622.63;5076211;28;45360;-46
2021/07/21 14:10:04;;;;;;;;;47.00;36.25;;;;;26.16;47.28;101611.13;5076333;28;45334;-52
2021/07/21 14:12:30;;;;;;;;;45.75;36.00;;;;;26.16;47.89;101617.31;5075812;28;45675;-49
2021/07/21 14:14:55;;;;;;;;;42.50;32.75;;;;;26.15;47.83;101610.31;5078980;28;45391;-50
2021/07/21 14:17:20;;;;;;;;;43.25;32.00;;;;;26.15;47.09;101617.41;5079969;28;45275;-45
2021/07/21 14:19:47;;;;;;;;;40.50;31.00;;;;;26.17;47.49;101623.47;5079697;28;45418;-45
2021/07/21 14:22:12;;;;;;;;;34.75;31.25;;;;;26.16;47.47;101622.63;5079351;28;45572;-48
2021/07/21 14:24:38;;;;;;;;;31.25;30.25;;;;;26.16;47.90;101622.63;5079119;28;45335;-49
2021/07/21 14:27:04;;;;;;;;;36.50;30.75;;;;;26.20;47.96;101618.78;5079240;28;45422;-46
2021/07/21 14:29:30;;;;;;;;;38.50;31.50;;;;;26.22;47.44;101616.88;5079342;28;45494;-49
2021/07/21 14:31:56;;;;;;;;;34.75;29.50;;;;;26.22;47.59;101608.91;5078984;28;45515;-48
2021/07/21 14:34:21;;;;;;;;;30.00;28.75;;;;;26.24;47.96;101614.97;5079225;28;45733;-48
2021/07/21 14:36:47;;;;;;;;;34.25;27.75;;;;;26.24;47.73;101612.31;5079062;28;45414;-50
2021/07/21 14:39:14;;;;;;;;;35.50;30.00;;;;;26.23;47.33;101607.13;5078991;28;45292;-48
2021/07/21 14:41:41;;;;;;;;;36.00;30.50;;;;;26.24;47.29;101606.16;5078562;28;45460;-53
2021/07/21 14:44:07;;;;;;;;;35.25;29.25;;;;;26.23;47.87;101615.94;5078694;28;45449;-51
2021/07/21 14:46:32;;;;;;;;;27.50;24.25;;;;;26.23;47.06;101615.94;5077478;28;45443;-49
2021/07/21 14:48:58;;;;;;;;;35.25;26.25;;;;;26.22;47.33;101611.56;5078995;28;45402;-45
2021/07/21 14:51:23;;;;;;;;;30.75;25.75;;;;;26.22;47.17;101610.75;5078791;28;46448;-45
2021/07/21 14:53:48;;;;;;;;;31.25;27.25;;;;;26.22;47.03;101616.88;5078597;28;45341;-52
2021/07/21 14:56:14;;;;;;;;;31.00;25.50;;;;;26.21;47.16;101607.22;5077451;28;45377;-52
2021/07/21 14:58:39;;;;;;;;;29.75;25.50;;;;;26.21;46.78;101615.19;5078663;28;45488;-48
2021/07/21 15:01:06;;;;;;;;;23.50;21.00;;;;;26.21;47.31;101609.03;5078137;28;52705;-49
2021/07/21 15:03:31;;;;;;;;;26.75;24.50;;;;;26.20;47.24;101600.19;5078458;28;45411;-49
2021/07/21 15:05:56;;;;;;;;;31.50;26.75;;;;;26.20;47.07;101602.00;5078412;28;45438;-50
2021/07/21 15:08:22;;;;;;;;;24.75;21.75;;;;;26.20;46.85;101599.34;5078828;28;45705;-47
2021/07/21 15:10:49;;;;;;;;;19.25;19.25;;;;;26.19;46.67;101598.50;5078177;28;45482;-43
2021/07/21 15:13:15;;;;;;;;;26.75;23.50;;;;;26.20;47.27;101599.34;5078305;28;45351;-48
2021/07/21 15:15:40;;;;;;;;;22.75;21.25;;;;;26.18;47.07;101599.44;5078505;28;45429;-44
2021/07/21 15:18:06;;;;;;;;;24.25;21.50;;;;;26.18;46.73;101594.13;5078320;28;45409;-50
2021/07/21 15:20:31;;;;;;;;;22.25;20.50;;;;;26.18;47.28;101591.47;5078096;28;45453;-49
2021/07/21 15:22:57;;;;;;;;;24.75;22.75;;;;;26.20;47.24;101599.34;5077257;28;45782;-46
2021/07/21 15:25:23;;;;;;;;;27.50;21.50;;;;;26.21;47.01;101595.75;5077574;27;45404;-42
2021/07/21 15:27:48;;;;;;;;;24.25;19.25;;;;;26.22;46.83;101587.66;5077996;28;45609;-44
2021/07/21 15:30:15;;;;;;;;;26.00;24.75;;;;;26.23;47.40;101583.22;5077576;28;46314;-45
2021/07/21 15:32:41;;;;;;;;;27.25;23.00;;;;;26.24;47.02;101591.06;5078002;28;45315;-45
2021/07/21 15:35:12;;;;;;;;;28.50;20.75;;;;;26.24;47.08;101585.75;5078017;27;45344;-46
2021/07/21 15:37:38;;;;;;;;;22.75;21.50;;;;;26.24;46.97;101585.75;5078080;28;45396;-49
2021/07/21 15:40:06;;;;;;;;;27.25;23.25;;;;;26.26;47.13;101592.78;5077697;27;45402;-49
2021/07/21 15:42:31;;;;;;;;;23.25;20.25;;;;;26.26;47.05;101582.16;5077704;28;45239;-50
2021/07/21 15:44:57;;;;;;;;;26.75;21.75;;;;;26.27;47.36;101583.84;5078291;28;45181;-43
2021/07/21 15:47:22;;;;;;;;;30.00;24.00;;;;;26.27;46.94;101583.84;5078053;28;45325;-48
2021/07/21 15:49:47;;;;;;;;;21.25;21.25;;;;;26.28;46.78;101580.25;5076586;28;46033;-47
2021/07/21 15:52:13;;;;;;;;;24.50;21.00;;;;;26.26;46.94;101588.28;5077799;28;45374;-48
2021/07/21 15:54:38;;;;;;;;;25.25;22.50;;;;;26.27;46.97;101583.84;5077809;27;45297;-53
2021/07/21 15:57:07;;;;;;;;;28.75;21.75;;;;;26.28;46.63;101585.56;5077687;27;45446;-45
2021/07/21 15:59:32;;;;;;;;;18.50;17.75;;;;;26.28;46.79;101590.88;5077498;28;46298;-47
2021/07/21 16:01:58;;;;;;;;;23.25;20.25;;;;;26.28;47.29;101582.91;5059576;28;45739;-48
2021/07/21 16:04:23;;;;;;;;;23.00;20.00;;;;;26.30;47.02;101583.63;5077889;28;45343;-44
2021/07/21 16:06:50;;;;;;;;;25.00;22.25;;;;;26.30;47.13;101578.31;5077707;27;45367;-47
2021/07/21 16:09:24;;;;;;;;;21.50;19.25;;;;;26.28;46.64;101577.59;5077325;28;46658;-46
2021/07/21 16:11:51;;;;;;;;;17.75;17.75;;;;;26.29;47.35;101581.94;5077272;28;45811;-47
2021/07/21 16:14:18;;;;;;;;;21.25;19.50;;;;;26.29;47.00;101585.44;5077389;27;45248;-47
2021/07/21 16:16:43;;;;;;;;;19.25;19.25;;;;;26.30;47.25;101573.00;5077505;27;45384;-46
2021/07/21 16:19:09;;;;;;;;;19.25;18.25;;;;;26.32;47.25;101576.41;5077323;28;45441;-51
2021/07/21 16:21:36;;;;;;;;;20.75;19.00;;;;;26.32;47.11;101574.59;5077157;27;45369;-50
2021/07/21 16:24:08;;;;;;;;;23.25;20.25;;;;;26.33;46.97;101568.34;5076684;27;45313;-49
2021/07/21 16:26:38;;;;;;;;;22.25;21.25;;;;;26.34;47.18;101569.19;5077151;27;45473;-49
2021/07/21 16:29:03;;;;;;;;;26.50;18.75;;;;;26.34;46.72;101567.38;5077057;28;45888;-50
2021/07/21 16:31:28;;;;;;;;;18.00;15.25;;;;;26.35;46.49;101571.72;5077183;27;45383;-49
2021/07/21 16:33:54;;;;;;;;;20.25;19.75;;;;;26.36;46.84;101569.94;5059123;28;45350;-45
2021/07/21 16:36:19;;;;;;;;;24.50;20.00;;;;;26.34;47.28;101561.19;5076693;28;45535;-50
2021/07/21 16:38:45;;;;;;;;;24.25;19.50;;;;;26.35;47.12;101560.25;5076838;28;46320;-48
2021/07/21 16:41:11;;;;;;;;;21.25;19.50;;;;;26.34;46.96;101558.53;5077025;28;45435;-46
2021/07/21 16:43:37;;;;;;;;;18.00;13.00;;;;;26.34;46.85;101561.19;5077094;28;45300;-44
2021/07/21 16:46:02;;;;;;;;;15.75;15.75;;;;;26.33;46.75;101562.16;5077227;28;45309;-44
2021/07/21 16:48:28;;;;;;;;;21.50;19.00;;;;;26.34;47.05;101563.88;5076856;27;45320;-46
2021/07/21 16:50:53;;;;;;;;;17.00;16.75;;;;;26.34;46.30;101563.88;5076646;28;45377;-45
2021/07/21 16:53:23;;;;;;;;;20.50;19.00;;;;;26.35;46.89;101560.25;5076875;28;45220;-46
2021/07/21 16:55:48;;;;;;;;;22.50;17.75;;;;;26.35;46.71;101565.56;5077117;28;45291;-46
2021/07/21 16:58:13;;;;;;;;;19.00;17.00;;;;;26.35;47.04;101565.56;5074994;28;45711;-48
2021/07/21 17:00:39;;;;;;;;;20.25;17.00;;;;;26.35;46.40;101568.22;5076680;27;45407;-50
2021/07/21 17:03:05;;;;;;;;;21.25;19.50;;;;;26.34;46.23;101564.72;5076604;28;45328;-48
2021/07/21 17:05:31;;;;;;;;;17.50;17.50;;;;;26.34;46.61;101563.88;5076596;28;45547;-45
2021/07/21 17:07:57;;;;;;;;;22.50;18.25;;;;;26.34;46.93;101569.19;5075914;28;47424;-49
2021/07/21 17:10:23;;;;;;;;;23.50;18.00;;;;;26.33;46.88;101563.03;5058672;28;46124;-48
2021/07/21 17:12:50;;;;;;;;;22.50;19.50;;;;;26.34;46.29;101561.19;5076775;27;45381;-46
2021/07/21 17:15:17;;;;;;;;;18.25;16.00;;;;;26.34;46.21;101562.06;5076983;28;45482;-44
2021/07/21 17:17:44;;;;;;;;;26.75;25.25;;;;;26.34;46.67;101566.53;5074426;28;45663;-44
2021/07/21 17:20:13;;;;;;;;;19.50;18.25;;;;;26.33;46.24;101562.16;5074149;28;46292;-45
2021/07/21 17:22:39;;;;;;;;;22.25;18.25;;;;;26.32;46.36;101561.31;5076122;28;45329;-49
2021/07/21 17:25:09;;;;;;;;;19.75;17.25;;;;;26.33;46.56;101556.84;5076602;28;45558;-47
2021/07/21 17:27:39;;;;;;;;;18.75;18.50;;;;;26.33;46.86;101554.19;5076092;28;45626;-44
2021/07/21 17:30:09;;;;;;;;;19.75;18.25;;;;;26.34;46.25;101559.41;5075780;28;45927;-45
2021/07/21 17:32:35;;;;;;;;;23.00;19.25;;;;;26.35;46.39;101565.56;5076248;28;45304;-45
2021/07/21 17:35:02;;;;;;;;;19.25;17.50;;;;;26.33;46.22;101560.38;5076871;28;45572;-46
2021/07/21 17:37:27;;;;;;;;;21.50;20.00;;;;;26.34;46.31;101562.06;5076214;28;46652;-47
2021/07/21 17:39:53;;;;;;;;;20.50;19.25;;;;;26.35;46.59;101560.25;5075929;28;45247;-47
2021/07/21 17:42:18;;;;;;;;;20.25;18.75;;;;;26.34;46.30;101555.88;5076308;28;45256;-50
2021/07/21 17:44:44;;;;;;;;;19.25;17.75;;;;;26.36;46.72;101559.28;5076533;28;45557;-47
2021/07/21 17:47:10;;;;;;;;;19.00;18.75;;;;;26.36;46.09;101557.47;5075717;28;46899;-46
2021/07/21 17:49:36;;;;;;;;;18.75;18.75;;;;;26.38;46.22;101554.72;5078619;28;45351;-49
2021/07/21 17:52:02;;;;;;;;;23.25;21.25;;;;;26.37;46.34;101555.69;5079971;28;45410;-45
2021/07/21 17:54:28;;;;;;;;;24.00;20.00;;;;;26.38;46.34;101560.03;5079860;28;45276;-45
2021/07/21 17:56:53;;;;;;;;;22.25;21.00;;;;;26.37;46.55;101561.00;5079422;28;46047;-49
2021/07/21 17:59:19;;;;;;;;;24.50;21.00;;;;;26.36;46.35;101557.47;5079382;28;45489;-44
2021/07/21 18:01:44;;;;;;;;;18.50;18.50;;;;;26.37;46.08;101561.00;5079283;28;45390;-51
2021/07/21 18:04:10;;;;;;;;;20.25;17.50;;;;;26.38;46.64;101557.38;5079683;28;45568;-46
2021/07/21 18:06:36;;;;;;;;;21.75;19.75;;;;;26.37;46.11;101558.34;5079189;28;46303;-47
2021/07/21 18:09:01;;;;;;;;;15.50;14.50;;;;;26.39;45.89;101561.75;5079429;28;45244;-47
2021/07/21 18:11:27;;;;;;;;;21.00;19.25;;;;;26.39;46.30;101559.94;5079405;28;45280;-46
2021/07/21 18:13:52;;;;;;;;;20.25;20.25;;;;;26.39;46.18;101559.09;5094975;27;45354;-49
2021/07/21 18:16:18;;;;;;;;;20.50;17.50;;;;;26.41;46.24;101558.97;5079164;28;45445;-50
2021/07/21 18:18:43;;;;;;;;;21.50;18.75;;;;;26.40;45.90;101560.78;5078850;28;45228;-49
2021/07/21 18:21:12;;;;;;;;;21.25;19.50;;;;;26.39;45.95;101562.59;5079328;28;45510;-46
2021/07/21 18:23:38;;;;;;;;;20.00;19.00;;;;;26.40;46.25;101566.13;5079238;28;45486;-46
2021/07/21 18:26:03;;;;;;;;;25.00;20.50;;;;;26.41;45.71;101561.63;5078903;28;45706;-46
2021/07/21 18:28:28;;;;;;;;;18.50;17.25;;;;;26.40;45.75;101558.13;5078830;28;45482;-48
2021/07/21 18:30:54;;;;;;;;;22.50;21.75;;;;;26.41;45.55;101559.81;5078833;28;45309;-45
2021/07/21 18:33:19;;;;;;;;;19.75;18.50;;;;;26.40;45.95;101566.13;5079112;28;45336;-47
2021/07/21 18:35:45;;;;;;;;;19.25;16.00;;;;;26.42;45.76;101566.00;5078728;28;46224;-47
2021/07/21 18:38:10;;;;;;;;;19.75;17.50;;;;;26.41;46.35;101565.13;5078484;28;45417;-46
2021/07/21 18:40:36;;;;;;;;;29.50;20.75;;;;;26.41;46.06;101559.81;5078903;28;45286;-49
2021/07/21 18:43:03;;;;;;;;;20.50;16.50;;;;;26.41;46.19;101570.44;5079498;28;45521;-45
2021/07/21 18:45:29;;;;;;;;;18.25;17.25;;;;;26.41;46.02;101564.28;5078754;28;45599;-48
2021/07/21 18:47:55;;;;;;;;;22.25;19.50;;;;;26.39;46.10;101569.72;5078578;28;45425;-51
2021/07/21 18:50:21;;;;;;;;;22.25;20.00;;;;;26.39;46.19;101567.06;5078739;28;45791;-48
2021/07/21 18:52:46;;;;;;;;;19.00;18.25;;;;;26.40;46.15;101571.44;5078965;28;45564;-44
2021/07/21 18:55:12;;;;;;;;;20.75;18.00;;;;;26.39;46.24;101567.06;5078638;28;46838;-45
2021/07/21 18:57:39;;;;;;;;;20.50;18.25;;;;;26.39;45.71;101572.38;5078431;28;45376;-51
2021/07/21 19:00:10;;;;;;;;;19.75;17.00;;;;;26.39;45.58;101572.38;5078682;28;45338;-47
2021/07/21 19:02:36;;;;;;;;;18.25;16.75;;;;;26.37;46.08;101579.59;5079057;28;45335;-48
2021/07/21 19:05:02;;;;;;;;;18.75;17.25;;;;;26.39;45.93;101585.66;5078849;28;45906;-45
2021/07/21 19:07:28;;;;;;;;;21.75;19.50;;;;;26.37;46.09;101579.59;5078475;28;45371;-48
2021/07/21 19:09:53;;;;;;;;;18.00;15.25;;;;;26.38;45.75;101573.34;5078655;28;45474;-47
2021/07/21 19:12:18;;;;;;;;;23.50;21.25;;;;;26.37;45.41;101571.63;5078722;28;45549;-49
2021/07/21 19:14:44;;;;;;;;;16.75;15.75;;;;;26.37;45.90;101575.13;5078302;28;46302;-50
2021/07/21 19:17:09;;;;;;;;;22.25;19.50;;;;;26.38;45.66;101576.00;5078327;28;45316;-50
2021/07/21 19:19:34;;;;;;;;;20.25;17.25;;;;;26.37;46.07;101568.97;5078826;28;45209;-50
2021/07/21 19:22:00;;;;;;;;;17.00;15.50;;;;;26.37;45.88;101579.59;5077259;28;45239;-48
2021/07/21 19:24:25;;;;;;;;;23.25;18.25;;;;;26.36;46.01;101576.09;5078191;28;47232;-47
2021/07/21 19:26:50;;;;;;;;;16.00;15.00;;;;;26.37;45.49;101580.44;5077978;28;47385;-46
2021/07/21 19:29:16;;;;;;;;;19.25;17.75;;;;;26.36;45.96;101584.06;5078238;28;45415;-48
2021/07/21 19:31:41;;;;;;;;;20.00;18.50;;;;;26.35;45.68;101584.16;5078530;28;45335;-48
2021/07/21 19:34:07;;;;;;;;;18.50;18.00;;;;;26.37;45.59;101593.72;5078441;28;45354;-46
2021/07/21 19:36:32;;;;;;;;;22.25;18.25;;;;;26.36;45.54;101599.16;5078534;28;45393;-48
2021/07/21 19:38:57;;;;;;;;;19.00;18.00;;;;;26.36;45.98;101600.00;5078239;28;45561;-45
2021/07/21 19:41:23;;;;;;;;;21.75;19.75;;;;;26.36;45.38;101593.84;5078301;28;45244;-47
2021/07/21 19:43:48;;;;;;;;;18.75;15.50;;;;;26.36;46.19;101588.53;5077856;28;45643;-44
2021/07/21 19:46:14;;;;;;;;;16.25;15.25;;;;;26.36;45.52;101601.81;5078111;28;45182;-46
2021/07/21 19:48:40;;;;;;;;;18.25;17.25;;;;;26.36;46.02;101596.50;5077932;28;45649;-47
2021/07/21 19:51:05;;;;;;;;;17.25;17.25;;;;;26.36;45.44;101599.16;5078443;28;45534;-46
2021/07/21 19:53:31;;;;;;;;;20.00;17.00;;;;;26.33;45.42;101604.69;5077811;28;45544;-50
2021/07/21 19:55:57;;;;;;;;;16.25;14.50;;;;;26.34;45.60;101601.06;5077762;28;45328;-47
2021/07/21 19:58:23;;;;;;;;;19.00;15.50;;;;;26.36;45.21;101609.78;5093432;27;45337;-48
2021/07/21 20:00:49;;;;;;;;;19.50;19.50;;;;;26.36;45.33;101613.28;5078052;28;45354;-45
2021/07/21 20:03:14;;;;;;;;;19.00;16.00;;;;;26.36;45.52;101621.25;5077550;28;46158;-48
2021/07/21 20:05:39;;;;;;;;;17.75;17.75;;;;;26.37;45.78;101614.16;5076131;28;45284;-47
2021/07/21 20:08:06;;;;;;;;;21.25;16.75;;;;;26.36;45.46;101621.25;5077721;27;45422;-50
2021/07/21 20:10:31;;;;;;;;;20.50;18.25;;;;;26.36;45.42;101625.75;5075438;27;45537;-51
2021/07/21 20:12:58;;;;;;;;;19.00;16.25;;;;;26.36;45.77;101628.41;5058854;28;48040;-51
2021/07/21 20:15:25;;;;;;;;;19.50;15.50;;;;;26.36;45.50;101631.06;5077273;27;45731;-49
2021/07/21 20:17:50;;;;;;;;;16.75;15.25;;;;;26.34;45.52;101633.81;5077410;28;45487;-46
2021/07/21 20:20:15;;;;;;;;;17.50;15.75;;;;;26.34;45.18;101633.81;5077398;28;45404;-47
2021/07/21 20:22:41;;;;;;;;;19.50;16.00;;;;;26.34;45.45;101641.78;5077188;28;46119;-48
2021/07/21 20:25:06;;;;;;;;;18.00;15.75;;;;;26.34;45.46;101639.13;5077584;27;45360;-48
2021/07/21 20:27:32;;;;;;;;;19.25;18.50;;;;;26.33;45.17;101645.41;5077113;28;45419;-50
2021/07/21 20:29:57;;;;;;;;;16.75;15.75;;;;;26.34;45.58;101648.91;5077507;27;45313;-50
2021/07/21 20:32:23;;;;;;;;;18.00;17.25;;;;;26.34;45.48;101654.22;5077159;28;46264;-47
2021/07/21 20:34:48;;;;;;;;;18.25;16.50;;;;;26.33;45.35;101653.38;5077143;28;45367;-48
2021/07/21 20:37:13;;;;;;;;;18.25;15.00;;;;;26.32;45.03;101651.69;5077393;28;45355;-45
2021/07/21 20:39:39;;;;;;;;;18.50;16.50;;;;;26.33;45.33;101652.50;5059481;28;45383;-48
2021/07/21 20:42:04;;;;;;;;;17.00;15.25;;;;;26.33;45.31;101663.16;5076928;28;46751;-51
2021/07/21 20:44:31;;;;;;;;;15.00;15.00;;;;;26.32;45.05;101661.44;5076994;28;45182;-50
2021/07/21 20:46:57;;;;;;;;;17.25;16.00;;;;;26.31;45.32;101654.41;5076991;28;45393;-50